Terminal Aerodrome Forecast
Issued by NWS

Home | Current Version | Previous Version | Text Only | Print | Product List | Glossary On
Versions: 1 2 3 4 5 6 7 8 9 10 11 12 13 14 15
000
FTAK31 PAJN 261100
TAFAJN
TAF
PAJN 261125Z 2612/2712 VRB05KT P6SM VCFG FEW004 SCT040 OVC060
     FM261900 08005KT P6SM SCT040 BKN060
     FM270500 08004KT P6SM FEW005 SCT040 BKN060=

USA.gov is the U.S. government's official web portal to all federal, state and local government web resources and services.